Rogers Pass
UTM 11U Easting = 46 4061, Northing = 56 83360     Elevation = 1305 m
Note to Users: This site contains raw data and is presented "as is" and in real time. Although reasonable care is exercised in providing this information, inaccuracies or omissions may occur due to the properties of weather and data collection systems. The Avalanche Control Section, responsible for its collection, disclaims all responsibility for the accuracy of the information.
Date Max Temp (deg C) Min Temp (deg C) Rel Hum (%) 1 Hr Precip (mm) HS (cm) Wind Dir (1 Hr Avg) Wind Spd (kph) (1 Hr Avg) Max Wind Speed (kph)
2021-02-27 03:00 -6 -7 97 0.0 174 SW 5 15
2021-02-27 04:00 -7 -7 97 0.1 176 SW 5 12
2021-02-27 05:00 -6 -7 97 0.2 176 SW 5 15
2021-02-27 06:00 -7 -7 96 0.1 176 S 4 11
2021-02-27 07:00 -7 -8 96 0.0 175 SW 4 14
2021-02-27 08:00 -7 -8 96 0.0 176 SW 6 19
2021-02-27 09:00 -7 -7 94 0.0 176 SW 9 20
2021-02-27 10:00 -5 -7 85 0.0 175 S 11 24
2021-02-27 11:00 -4 -6 80 0.0 174 S 11 29
2021-02-27 12:00 -3 -4 69 0.0 174 S 13 27
2021-02-27 13:00 -4 -5 69 0.0 174 S 14 26
2021-02-27 14:00 -5 -5 70 0.0 174 S 14 30
2021-02-27 15:00 -5 -5 72 0.0 174 S 13 35
2021-02-27 16:00 -5 -6 74 0.0 174 S 11 28
2021-02-27 17:00 -5 -6 78 0.0 174 SW 10 25
2021-02-27 18:00 -6 -7 82 0.0 174 S 9 22
2021-02-27 19:00 -7 -7 90 0.0 174 S 10 18
2021-02-27 20:00 -7 -7 93 0.0 174 S 9 17
2021-02-27 21:00 -7 -7 94 0.0 173 SW 9 20
2021-02-27 22:00 -7 -7 93 0.1 173 SW 11 22
2021-02-27 23:00 -7 -7 95 0.1 173 SW 9 18
2021-02-28 00:00 -7 -7 96 0.1 173 SW 9 18
2021-02-28 01:00 -7 -7 96 0.3 173 S 9 19
2021-02-28 02:00 -7 -7 95 0.1 171 S 10 21